This is the latest recevied weather packets stored in our database for station/object VE3MNX. If no packets are shown the sender has not sent any weather packets the latest 10 day(s).
| Time | Temp. | Humidity | Pressure | Rain* | Wind** | Luminosity | Snow |
|---|---|---|---|---|---|---|---|
| 1778258380 | 10.56° C | 87% | 1010.5 hPa | 0 mm | - | - | - |
| 1778257479 | 11.11° C | 86% | 1010.8 hPa | 0 mm | - | - | - |
| 1778256582 | 10.56° C | 85% | 1010.5 hPa | 0 mm | - | - | - |
| 1778255678 | 11.11° C | 83% | 1011.1 hPa | 0 mm | - | - | - |
| 1778254779 | 10.56° C | 85% | 1011 hPa | 0 mm | - | - | - |
| 1778253879 | 10° C | 85% | 1011.1 hPa | 0 mm | - | - | - |
| 1778252980 | 11.11° C | 82% | 1011.2 hPa | 0 mm | - | - | - |
| 1778252078 | 10.56° C | 82% | 1011.2 hPa | 0 mm | - | - | - |
| 1778251180 | 10° C | 83% | 1011.2 hPa | 0 mm | - | - | - |
| 1778250279 | 10° C | 81% | 1011.2 hPa | 0 mm | - | - | - |
| 1778249379 | 10.56° C | 81% | 1011.2 hPa | 0 mm | - | - | - |
| 1778248479 | 10.56° C | 79% | 1011.2 hPa | 0 mm | - | - | - |
| 1778247579 | 10° C | 81% | 1011.2 hPa | 0 mm | - | - | - |
| 1778246678 | 9.44° C | 82% | 1011.2 hPa | 0 mm | - | - | - |
| 1778245780 | 10° C | 79% | 1011.2 hPa | 0 mm | - | - | - |
| 1778244878 | 9.44° C | 80% | 1011.2 hPa | 0 mm | - | - | - |
| 1778243978 | 9.44° C | 80% | 1011.2 hPa | 0 mm | - | - | - |
| 1778243079 | 8.89° C | 82% | 1011.2 hPa | 0 mm | - | - | - |
| 1778242179 | 8.89° C | 83% | 1010.8 hPa | 0 mm | - | - | - |
| 1778241278 | 8.33° C | 82% | 1010.8 hPa | 0 mm | - | - | - |
| 1778240378 | 7.78° C | 82% | 1010.5 hPa | 0 mm | - | - | - |
| 1778239480 | 7.78° C | 83% | 1010.8 hPa | 0 mm | - | - | - |
| 1778238579 | 6.11° C | 88% | 1010.7 hPa | 0 mm | - | - | - |
| 1778237679 | 5° C | 92% | 1010.5 hPa | 0 mm | - | - | - |
| 1778236778 | 5.56° C | 92% | 1010.5 hPa | 0 mm | - | - | - |
* Rain latest hour (hover to see other rain measurements)
** Current wind speed in m/s (hover to see current wind gust speed)